createdAt,value
2017-06-30T00:00:43.426Z,16.60
2017-06-30T00:03:10.981Z,16.60
2017-06-30T00:05:45.310Z,16.60
2017-06-30T00:08:15.897Z,16.60
2017-06-30T00:10:43.658Z,16.70
2017-06-30T00:13:11.129Z,16.60
2017-06-30T00:15:38.709Z,16.60
2017-06-30T00:18:15.114Z,16.50
2017-06-30T00:20:42.640Z,16.50
2017-06-30T00:23:11.235Z,16.50
2017-06-30T00:25:45.119Z,16.40
2017-06-30T00:28:16.177Z,16.50
2017-06-30T00:30:46.570Z,16.50
2017-06-30T00:33:14.054Z,16.50
2017-06-30T00:35:45.718Z,16.50
2017-06-30T00:38:15.274Z,16.40
2017-06-30T00:40:46.149Z,16.40
2017-06-30T00:43:14.385Z,16.40
2017-06-30T00:45:44.969Z,16.30
2017-06-30T00:48:15.462Z,16.40
2017-06-30T00:50:46.086Z,16.30
2017-06-30T00:53:13.902Z,16.30
2017-06-30T00:55:41.458Z,16.30
2017-06-30T00:58:09.697Z,16.30
2017-06-30T01:00:37.185Z,16.30
2017-06-30T01:03:15.511Z,16.40
2017-06-30T01:05:43.282Z,16.30
2017-06-30T01:08:10.832Z,16.30
2017-06-30T01:10:45.470Z,16.40
2017-06-30T01:13:13.006Z,16.40
2017-06-30T01:15:41.254Z,16.30
2017-06-30T01:18:08.845Z,16.20
2017-06-30T01:20:44.486Z,16.20
2017-06-30T01:23:13.083Z,16.20
2017-06-30T01:25:40.642Z,16.10
2017-06-30T01:28:15.738Z,16.10
2017-06-30T01:30:46.147Z,16.00
2017-06-30T01:33:17.040Z,16.00
2017-06-30T01:35:44.514Z,16.00
2017-06-30T01:38:15.912Z,15.90
2017-06-30T01:40:43.402Z,15.90
2017-06-30T01:43:10.956Z,15.90
2017-06-30T01:45:39.507Z,15.90
2017-06-30T01:48:15.106Z,15.90
2017-06-30T01:50:42.941Z,15.90
2017-06-30T01:53:10.516Z,15.90
2017-06-30T01:55:45.040Z,15.90
2017-06-30T01:58:12.611Z,15.90
2017-06-30T02:00:40.894Z,15.90
2017-06-30T02:03:14.588Z,15.80
2017-06-30T02:05:46.283Z,15.90
2017-06-30T02:08:14.100Z,15.90
2017-06-30T02:10:42.377Z,16.00
2017-06-30T02:13:09.936Z,15.90
2017-06-30T02:15:38.217Z,16.00
2017-06-30T02:18:16.021Z,16.00
2017-06-30T02:20:44.613Z,16.10
2017-06-30T02:23:12.891Z,16.00
2017-06-30T02:25:40.442Z,16.00
2017-06-30T02:28:08.722Z,16.10
2017-06-30T02:30:45.184Z,16.10
2017-06-30T02:33:13.770Z,16.10
2017-06-30T02:35:41.330Z,16.10
2017-06-30T02:38:09.609Z,16.10
2017-06-30T02:40:44.437Z,16.10
2017-06-30T02:43:16.265Z,16.10
2017-06-30T02:45:44.032Z,16.00
2017-06-30T02:48:11.513Z,16.10
2017-06-30T02:50:39.807Z,16.10
2017-06-30T02:53:07.656Z,16.10
2017-06-30T02:55:45.982Z,16.10
2017-06-30T02:58:14.567Z,16.10
2017-06-30T03:00:46.328Z,16.10
2017-06-30T03:03:15.201Z,16.00
2017-06-30T03:05:42.681Z,16.00
2017-06-30T03:08:10.167Z,16.00
2017-06-30T03:10:37.670Z,16.00
2017-06-30T03:13:14.873Z,16.00
2017-06-30T03:15:45.768Z,16.00
2017-06-30T03:18:13.259Z,16.00
2017-06-30T03:20:41.858Z,16.00
2017-06-30T03:23:15.349Z,15.90
2017-06-30T03:25:43.930Z,16.00
2017-06-30T03:28:12.208Z,16.00
2017-06-30T03:30:39.764Z,15.90
2017-06-30T03:33:14.706Z,16.00
2017-06-30T03:35:42.973Z,16.00
2017-06-30T03:38:11.566Z,16.00
2017-06-30T03:40:39.127Z,15.90
2017-06-30T03:43:15.140Z,16.00
2017-06-30T03:45:42.638Z,15.90
2017-06-30T03:48:10.912Z,16.00
2017-06-30T03:50:44.782Z,15.90
2017-06-30T03:53:12.293Z,16.00
2017-06-30T03:55:46.058Z,15.90
2017-06-30T03:58:16.585Z,16.00
2017-06-30T04:00:45.093Z,15.90
2017-06-30T04:03:12.662Z,15.90
2017-06-30T04:05:40.929Z,16.00
2017-06-30T04:08:08.693Z,15.90
2017-06-30T04:10:36.173Z,16.00
2017-06-30T04:13:05.049Z,16.00
2017-06-30T04:15:33.581Z,16.00
2017-06-30T04:18:06.915Z,15.90
2017-06-30T04:20:35.526Z,16.00
2017-06-30T04:23:06.298Z,16.00
2017-06-30T04:25:35.133Z,16.00
2017-06-30T04:28:06.341Z,16.00
2017-06-30T04:30:33.821Z,16.00
2017-06-30T04:33:01.316Z,16.10
2017-06-30T04:35:28.822Z,16.10
2017-06-30T04:37:56.628Z,16.10
2017-06-30T04:40:25.120Z,16.10
2017-06-30T04:42:52.645Z,16.20
2017-06-30T04:45:26.062Z,16.20
2017-06-30T04:47:53.538Z,16.20
2017-06-30T04:50:21.390Z,16.30
2017-06-30T04:52:49.647Z,16.30
2017-06-30T04:55:25.082Z,16.30
2017-06-30T04:57:52.563Z,16.40
2017-06-30T05:00:26.093Z,16.40
2017-06-30T05:02:53.646Z,16.40
2017-06-30T05:05:21.203Z,16.50
2017-06-30T05:07:54.453Z,16.60
2017-06-30T05:10:25.268Z,16.60
2017-06-30T05:12:53.076Z,16.70
2017-06-30T05:15:27.241Z,16.80
2017-06-30T05:17:55.357Z,16.80
2017-06-30T05:20:23.663Z,16.90
2017-06-30T05:22:51.163Z,16.90
2017-06-30T05:25:18.769Z,17.00
2017-06-30T05:27:47.026Z,17.10
2017-06-30T05:30:15.622Z,17.20
2017-06-30T05:32:46.528Z,17.20
2017-06-30T05:35:15.591Z,17.30
2017-06-30T05:37:43.091Z,17.30
2017-06-30T05:40:10.576Z,17.40
2017-06-30T05:42:38.889Z,17.50
2017-06-30T05:45:06.383Z,17.40
2017-06-30T05:47:34.182Z,17.50
2017-06-30T05:50:05.379Z,17.60
2017-06-30T05:52:32.858Z,17.60
2017-06-30T05:55:00.362Z,17.60
2017-06-30T05:57:34.731Z,17.60
2017-06-30T06:00:05.920Z,17.70
2017-06-30T06:02:35.165Z,17.70
2017-06-30T06:05:06.068Z,17.70
2017-06-30T06:07:33.552Z,17.70
2017-06-30T06:10:01.034Z,17.70
2017-06-30T06:12:35.258Z,17.60
2017-06-30T06:15:02.741Z,17.60
2017-06-30T06:17:36.892Z,17.60
2017-06-30T06:20:04.442Z,17.70
2017-06-30T06:22:31.945Z,17.80
2017-06-30T06:25:00.210Z,18.10
2017-06-30T06:27:34.946Z,18.10
2017-06-30T06:30:02.741Z,18.20
2017-06-30T06:32:30.227Z,18.40
2017-06-30T06:34:57.732Z,18.40
2017-06-30T06:37:35.303Z,18.50
2017-06-30T06:42:39.862Z,18.60
2017-06-30T06:45:15.127Z,18.60
2017-06-30T06:47:43.641Z,18.70
2017-06-30T06:50:11.130Z,18.70
2017-06-30T06:52:45.204Z,18.70
2017-06-30T06:55:12.680Z,18.70
2017-06-30T06:57:46.491Z,18.80
2017-06-30T07:00:13.971Z,18.90
2017-06-30T07:02:47.557Z,18.90
2017-06-30T07:05:15.110Z,19.00
2017-06-30T07:07:45.657Z,19.10
2017-06-30T07:10:16.314Z,19.10
2017-06-30T07:12:44.900Z,19.30
2017-06-30T07:15:12.651Z,19.30
2017-06-30T07:17:40.142Z,19.40
2017-06-30T07:20:14.820Z,19.50
2017-06-30T07:22:42.308Z,19.50
2017-06-30T07:25:10.556Z,19.50
2017-06-30T07:27:38.404Z,19.40
2017-06-30T07:30:15.602Z,19.50
2017-06-30T07:32:46.899Z,19.60
2017-06-30T07:35:14.388Z,19.90
2017-06-30T07:37:41.870Z,20.00
2017-06-30T07:40:09.369Z,20.10
2017-06-30T07:42:44.980Z,20.10
2017-06-30T07:45:12.750Z,20.10
2017-06-30T07:47:40.230Z,20.10
2017-06-30T07:50:08.469Z,19.90
2017-06-30T07:52:46.083Z,19.90
2017-06-30T07:55:13.561Z,19.90
2017-06-30T07:57:45.872Z,19.80
2017-06-30T08:00:16.291Z,19.80
2017-06-30T08:02:44.814Z,19.90
2017-06-30T08:05:12.310Z,20.00
2017-06-30T08:07:39.793Z,20.10
2017-06-30T08:10:07.534Z,20.10
2017-06-30T08:12:45.641Z,20.20
2017-06-30T08:15:16.786Z,20.30
2017-06-30T08:17:44.887Z,20.30
2017-06-30T08:20:12.358Z,20.30
2017-06-30T08:22:45.863Z,20.00
2017-06-30T08:25:13.367Z,19.90
2017-06-30T08:27:41.954Z,19.90
2017-06-30T08:30:15.852Z,19.90
2017-06-30T08:32:44.379Z,20.00
2017-06-30T08:35:11.862Z,20.00
2017-06-30T08:37:39.337Z,20.10
2017-06-30T08:40:15.054Z,20.10
2017-06-30T08:42:42.528Z,20.10
2017-06-30T08:45:10.321Z,20.10
2017-06-30T08:47:37.805Z,20.10
2017-06-30T08:50:05.287Z,20.00
2017-06-30T08:52:32.795Z,19.80
2017-06-30T08:55:04.900Z,19.90
2017-06-30T08:57:32.676Z,19.90
2017-06-30T09:00:00.148Z,20.10
2017-06-30T09:02:27.622Z,20.20
2017-06-30T09:04:55.131Z,20.30
2017-06-30T09:07:22.663Z,20.30
2017-06-30T09:09:50.427Z,20.20
2017-06-30T09:12:25.107Z,20.20
2017-06-30T09:14:52.938Z,20.20
2017-06-30T09:17:26.258Z,20.10
2017-06-30T09:19:54.106Z,20.30
2017-06-30T09:22:21.592Z,20.50
2017-06-30T09:24:55.113Z,20.70
2017-06-30T09:27:22.604Z,20.90
2017-06-30T09:29:50.856Z,21.10
2017-06-30T09:32:18.646Z,21.00
2017-06-30T09:34:46.140Z,21.00
2017-06-30T09:37:13.625Z,20.90
2017-06-30T09:39:44.939Z,20.70
2017-06-30T09:42:15.535Z,20.60
2017-06-30T09:44:43.288Z,20.70
2017-06-30T09:47:16.487Z,20.70
2017-06-30T09:49:45.082Z,20.90
2017-06-30T09:52:15.961Z,20.80
2017-06-30T09:54:43.451Z,20.90
2017-06-30T09:57:10.943Z,21.00
2017-06-30T09:59:44.636Z,21.10
2017-06-30T10:02:12.405Z,21.40
2017-06-30T10:04:39.897Z,21.60
2017-06-30T10:07:15.584Z,21.70
2017-06-30T10:09:43.061Z,21.60
2017-06-30T10:12:16.572Z,21.40
2017-06-30T10:14:54.710Z,21.10
2017-06-30T10:17:25.837Z,21.00
2017-06-30T10:19:53.382Z,20.90
2017-06-30T10:22:21.659Z,20.60
2017-06-30T10:24:55.231Z,20.60
2017-06-30T10:27:26.045Z,20.60
2017-06-30T10:29:56.903Z,20.80
2017-06-30T10:32:25.188Z,21.20
2017-06-30T10:34:52.671Z,21.40
2017-06-30T10:37:20.426Z,21.50
2017-06-30T10:39:54.704Z,21.70
2017-06-30T10:42:22.511Z,22.30
2017-06-30T10:44:50.008Z,23.20
2017-06-30T10:47:24.657Z,23.60
2017-06-30T10:49:52.154Z,24.00
2017-06-30T10:52:19.722Z,23.90
2017-06-30T10:54:54.770Z,23.50
2017-06-30T10:57:22.250Z,23.10
2017-06-30T10:59:55.707Z,22.90
2017-06-30T11:02:25.172Z,23.10
2017-06-30T11:04:55.947Z,23.00
2017-06-30T11:07:23.505Z,23.30
2017-06-30T11:09:54.709Z,23.10
2017-06-30T11:12:25.213Z,23.00
2017-06-30T11:14:55.882Z,22.90
2017-06-30T11:17:26.750Z,22.80
2017-06-30T11:19:54.246Z,22.80
2017-06-30T11:22:21.729Z,22.90
2017-06-30T11:24:54.969Z,22.90
2017-06-30T11:27:22.455Z,22.90
2017-06-30T11:29:50.273Z,22.60
2017-06-30T11:32:18.522Z,22.00
2017-06-30T11:34:54.854Z,22.00
2017-06-30T11:37:22.354Z,21.70
2017-06-30T11:39:56.098Z,21.60
2017-06-30T11:42:23.589Z,21.50
2017-06-30T11:44:51.079Z,21.50
2017-06-30T11:47:24.651Z,21.70
2017-06-30T11:49:55.363Z,22.10
2017-06-30T11:52:25.800Z,22.50
2017-06-30T11:54:56.344Z,22.70
2017-06-30T11:57:25.231Z,23.00
2017-06-30T11:59:56.355Z,23.40
2017-06-30T12:02:23.859Z,23.60
2017-06-30T12:04:57.371Z,23.70
2017-06-30T12:07:24.846Z,23.60
2017-06-30T12:09:56.197Z,23.50
2017-06-30T12:12:23.690Z,23.40
2017-06-30T12:14:54.885Z,23.40
2017-06-30T12:17:23.168Z,23.90
2017-06-30T12:19:50.649Z,23.80
2017-06-30T12:22:24.904Z,23.80
2017-06-30T12:24:52.410Z,23.70
2017-06-30T12:27:19.910Z,23.60
2017-06-30T12:29:47.432Z,23.40
2017-06-30T12:32:15.669Z,23.10
2017-06-30T12:34:46.514Z,23.10
2017-06-30T12:37:15.597Z,23.00
2017-06-30T12:39:43.078Z,22.80
2017-06-30T12:42:11.346Z,22.80
2017-06-30T12:44:38.833Z,22.80
2017-06-30T12:47:06.719Z,23.10
2017-06-30T12:49:35.669Z,23.80
2017-06-30T12:52:03.164Z,24.10
2017-06-30T12:54:30.671Z,24.00
2017-06-30T12:57:05.113Z,24.10
2017-06-30T12:59:35.362Z,24.10
2017-06-30T13:02:02.843Z,24.00
2017-06-30T13:04:30.325Z,24.10
2017-06-30T13:07:04.870Z,24.00
2017-06-30T13:09:32.359Z,23.90
2017-06-30T13:12:06.084Z,23.90
2017-06-30T13:14:33.566Z,24.30
2017-06-30T13:17:01.043Z,25.00
2017-06-30T13:19:28.815Z,25.60
2017-06-30T13:22:06.012Z,26.10
2017-06-30T13:24:34.615Z,26.00
2017-06-30T13:27:05.729Z,26.00
2017-06-30T13:29:36.597Z,25.80
2017-06-30T13:32:04.891Z,26.10
2017-06-30T13:34:32.378Z,26.40
2017-06-30T13:36:59.869Z,27.20
2017-06-30T13:39:34.345Z,28.00
2017-06-30T13:42:05.448Z,28.00
2017-06-30T13:44:32.929Z,27.40
2017-06-30T13:47:07.315Z,27.00
2017-06-30T13:49:35.564Z,26.90
2017-06-30T13:52:03.044Z,26.80
2017-06-30T13:54:30.529Z,27.00
2017-06-30T13:56:58.018Z,26.60
2017-06-30T13:59:35.495Z,26.50
2017-06-30T14:02:05.907Z,27.10
2017-06-30T14:04:36.727Z,27.20
2017-06-30T14:07:14.647Z,26.30
2017-06-30T14:09:42.565Z,26.20
2017-06-30T14:12:16.131Z,25.80
2017-06-30T14:14:43.900Z,25.30
2017-06-30T14:17:11.389Z,25.00
2017-06-30T14:19:38.870Z,24.80
2017-06-30T14:22:06.391Z,24.70
2017-06-30T14:24:35.219Z,24.60
2017-06-30T14:27:04.972Z,24.60
2017-06-30T14:29:32.481Z,24.50
2017-06-30T14:32:00.744Z,24.90
2017-06-30T14:34:35.177Z,24.80
2017-06-30T14:37:02.652Z,25.00
2017-06-30T14:39:30.424Z,25.10
2017-06-30T14:42:04.834Z,25.10
2017-06-30T14:44:33.345Z,25.30
2017-06-30T14:47:07.113Z,25.30
2017-06-30T14:49:34.886Z,25.50
2017-06-30T14:52:06.663Z,25.50
2017-06-30T14:54:34.421Z,25.50
2017-06-30T14:57:01.924Z,25.70
2017-06-30T14:59:29.403Z,25.90
2017-06-30T15:02:04.831Z,26.20
2017-06-30T15:04:32.327Z,26.20
2017-06-30T15:07:00.915Z,25.60
2017-06-30T15:09:28.433Z,25.50
2017-06-30T15:12:06.491Z,25.50
2017-06-30T15:14:34.055Z,25.50
2017-06-30T15:17:01.560Z,25.40
2017-06-30T15:19:29.114Z,25.30
2017-06-30T15:22:04.759Z,25.10
2017-06-30T15:24:32.534Z,24.90
2017-06-30T15:27:00.026Z,24.90
2017-06-30T15:29:28.323Z,25.00
2017-06-30T15:31:55.819Z,25.00
2017-06-30T15:34:23.308Z,25.00
2017-06-30T15:36:57.682Z,25.10
2017-06-30T15:39:35.001Z,25.00
2017-06-30T15:42:02.748Z,25.00
2017-06-30T15:44:36.256Z,25.00
2017-06-30T15:47:05.389Z,24.90
2017-06-30T15:49:34.705Z,24.90
2017-06-30T15:54:44.610Z,24.90
2017-06-30T15:57:12.081Z,24.90
2017-06-30T15:59:39.903Z,24.90
2017-06-30T16:02:07.387Z,24.90
2017-06-30T16:04:45.295Z,24.90
2017-06-30T16:07:12.778Z,24.90
2017-06-30T16:09:46.559Z,25.00
2017-06-30T16:12:15.196Z,25.00
2017-06-30T16:14:42.699Z,24.70
2017-06-30T16:17:10.473Z,24.60
2017-06-30T16:19:37.962Z,24.60
2017-06-30T16:22:15.566Z,24.60
2017-06-30T16:24:46.074Z,24.60
2017-06-30T16:27:14.773Z,24.50
2017-06-30T16:29:42.262Z,24.50
2017-06-30T16:32:09.750Z,24.30
2017-06-30T16:34:44.801Z,24.10
2017-06-30T16:37:12.296Z,24.00
2017-06-30T16:39:39.795Z,24.00
2017-06-30T16:42:14.337Z,24.00
2017-06-30T16:44:41.814Z,23.90
2017-06-30T16:47:15.902Z,23.80
2017-06-30T16:49:43.382Z,23.80
2017-06-30T16:52:17.183Z,23.80
2017-06-30T16:54:44.883Z,23.80
2017-06-30T16:57:12.369Z,23.80
2017-06-30T16:59:45.863Z,23.90
2017-06-30T17:02:14.666Z,23.90
2017-06-30T17:04:42.496Z,23.80
2017-06-30T17:07:16.584Z,23.80
2017-06-30T17:09:44.086Z,23.70
2017-06-30T17:12:15.113Z,23.70
2017-06-30T17:14:42.620Z,23.70
2017-06-30T17:17:10.110Z,23.70
2017-06-30T17:19:44.539Z,23.80
2017-06-30T17:22:12.410Z,23.80
2017-06-30T17:24:39.890Z,23.90
2017-06-30T17:27:07.383Z,23.80
2017-06-30T17:29:35.139Z,23.80
2017-06-30T17:32:05.888Z,23.70
2017-06-30T17:34:33.376Z,23.70
2017-06-30T17:37:01.639Z,23.60
2017-06-30T17:39:29.884Z,23.60
2017-06-30T17:42:05.353Z,23.60
2017-06-30T17:44:35.987Z,23.60
2017-06-30T17:47:03.475Z,23.50
2017-06-30T17:49:31.219Z,23.40
2017-06-30T17:52:05.413Z,23.30
2017-06-30T17:54:33.200Z,23.30
2017-06-30T17:57:06.634Z,23.20
2017-06-30T17:59:34.494Z,23.20
2017-06-30T18:02:01.984Z,23.10
2017-06-30T18:04:35.894Z,23.10
2017-06-30T18:07:06.303Z,23.00
2017-06-30T18:09:34.941Z,22.90
2017-06-30T18:12:03.539Z,22.70
2017-06-30T18:14:36.931Z,22.60
2017-06-30T18:17:04.751Z,22.60
2017-06-30T18:19:35.185Z,22.50
2017-06-30T18:22:06.071Z,22.40
2017-06-30T18:24:33.558Z,22.30
2017-06-30T18:27:01.033Z,22.20
2017-06-30T18:29:34.995Z,22.20
2017-06-30T18:32:02.528Z,22.10
2017-06-30T18:34:31.129Z,22.00
2017-06-30T18:37:04.986Z,22.00
2017-06-30T18:39:32.804Z,21.90
2017-06-30T18:42:00.298Z,21.90
2017-06-30T18:44:27.817Z,21.80
2017-06-30T18:46:55.311Z,21.70
2017-06-30T18:49:22.822Z,21.60
2017-06-30T18:51:55.224Z,21.40
2017-06-30T18:54:26.433Z,21.30
2017-06-30T18:56:53.905Z,21.30
2017-06-30T18:59:21.411Z,21.20
2017-06-30T19:01:48.894Z,21.00
2017-06-30T19:04:16.659Z,20.90
2017-06-30T19:06:45.443Z,20.80
2017-06-30T19:09:16.419Z,20.70
2017-06-30T19:11:43.893Z,20.60
2017-06-30T19:14:11.384Z,20.50
2017-06-30T19:16:38.873Z,20.50
2017-06-30T19:19:06.351Z,20.40
2017-06-30T19:21:35.668Z,20.30
2017-06-30T19:24:03.136Z,20.30
2017-06-30T19:26:36.673Z,20.20
2017-06-30T19:29:04.164Z,20.10
2017-06-30T19:31:35.969Z,19.90
2017-06-30T19:34:06.506Z,19.90
2017-06-30T19:36:35.008Z,19.90
2017-06-30T19:39:02.805Z,19.80
2017-06-30T19:41:30.291Z,19.70
2017-06-30T19:43:57.779Z,19.70
2017-06-30T19:46:25.272Z,19.60
2017-06-30T19:48:53.548Z,19.40
2017-06-30T19:51:25.227Z,19.30
2017-06-30T19:53:52.709Z,19.30
2017-06-30T19:56:27.209Z,19.30
2017-06-30T19:58:54.714Z,19.20
2017-06-30T20:01:25.230Z,19.10
2017-06-30T20:03:52.736Z,19.10
2017-06-30T20:06:21.000Z,19.10
2017-06-30T20:08:54.800Z,19.00
2017-06-30T20:11:22.294Z,19.00
2017-06-30T20:13:55.831Z,19.00
2017-06-30T20:16:23.311Z,19.00
2017-06-30T20:18:57.140Z,19.00
2017-06-30T20:21:24.742Z,19.00
2017-06-30T20:23:55.301Z,19.00
2017-06-30T20:26:22.799Z,19.00
2017-06-30T20:28:51.053Z,19.00
2017-06-30T20:31:25.126Z,19.00
2017-06-30T20:33:55.782Z,19.00
2017-06-30T20:36:23.258Z,19.10
2017-06-30T20:38:50.756Z,19.10
2017-06-30T20:41:25.223Z,19.10
2017-06-30T20:43:56.417Z,19.10
2017-06-30T20:46:25.611Z,19.10
2017-06-30T20:48:53.089Z,19.10
2017-06-30T20:51:20.619Z,19.10
2017-06-30T20:53:54.827Z,19.00
2017-06-30T20:56:22.319Z,19.00
2017-06-30T20:58:56.107Z,19.00
2017-06-30T21:01:23.885Z,19.00
2017-06-30T21:03:51.391Z,19.00
2017-06-30T21:06:24.806Z,19.00
2017-06-30T21:08:53.086Z,19.00
2017-06-30T21:11:21.325Z,19.00
2017-06-30T21:13:48.814Z,18.90
2017-06-30T21:16:24.406Z,19.00
2017-06-30T21:18:53.062Z,19.00
2017-06-30T21:21:24.831Z,18.90
2017-06-30T21:23:55.771Z,18.90
2017-06-30T21:26:23.251Z,18.90
2017-06-30T21:28:57.403Z,18.90
2017-06-30T21:31:24.869Z,18.80
2017-06-30T21:33:52.350Z,18.80
2017-06-30T21:36:20.610Z,18.70
2017-06-30T21:38:48.854Z,18.70
2017-06-30T21:41:26.267Z,18.60
2017-06-30T21:43:53.743Z,18.60
2017-06-30T21:46:25.440Z,18.50
2017-06-30T21:48:52.938Z,18.40
2017-06-30T21:51:20.418Z,18.40
2017-06-30T21:53:49.011Z,18.30
2017-06-30T21:56:24.627Z,18.20
2017-06-30T21:58:55.797Z,18.20
2017-06-30T22:01:24.043Z,18.10
2017-06-30T22:03:57.579Z,18.00
2017-06-30T22:06:25.059Z,18.00
2017-06-30T22:08:55.763Z,18.00
2017-06-30T22:11:25.332Z,17.80
2017-06-30T22:13:52.810Z,17.70
2017-06-30T22:16:26.589Z,17.70
2017-06-30T22:18:55.580Z,17.70
2017-06-30T22:21:26.023Z,17.60
2017-06-30T22:23:53.524Z,17.60
2017-06-30T22:26:21.011Z,17.60
2017-06-30T22:28:48.832Z,17.60
2017-06-30T22:31:24.710Z,17.50
2017-06-30T22:33:52.568Z,17.50
2017-06-30T22:36:25.856Z,17.50
2017-06-30T22:38:53.720Z,17.50
2017-06-30T22:41:21.966Z,17.50
2017-06-30T22:43:49.447Z,17.40
2017-06-30T22:46:16.924Z,17.50
2017-06-30T22:48:44.413Z,17.50
2017-06-30T22:51:12.197Z,17.50
2017-06-30T22:53:39.673Z,17.50
2017-06-30T22:56:07.155Z,17.50
2017-06-30T22:58:45.651Z,17.50
2017-06-30T23:01:13.126Z,17.50
2017-06-30T23:03:45.296Z,17.50
2017-06-30T23:06:16.562Z,17.50
2017-06-30T23:08:44.036Z,17.40
2017-06-30T23:11:11.530Z,17.50
2017-06-30T23:13:39.009Z,17.40
2017-06-30T23:16:14.630Z,17.40
2017-06-30T23:18:45.233Z,17.30
2017-06-30T23:21:12.702Z,17.40
2017-06-30T23:23:40.192Z,17.30
2017-06-30T23:26:07.666Z,17.30
2017-06-30T23:28:46.616Z,17.30
2017-06-30T23:31:15.099Z,17.20
2017-06-30T23:33:42.574Z,17.30
2017-06-30T23:36:10.063Z,17.30
2017-06-30T23:38:44.443Z,17.30
2017-06-30T23:41:12.272Z,17.30
2017-06-30T23:43:39.747Z,17.30
2017-06-30T23:46:15.475Z,17.30
2017-06-30T23:48:42.946Z,17.30
2017-06-30T23:51:10.417Z,17.30
2017-06-30T23:53:44.658Z,17.30
2017-06-30T23:56:15.508Z,17.30
2017-06-30T23:58:43.316Z,17.30
